METAR Data
IDs: Format: Raw Decoded Include TAF

Data at: 0707 UTC 03 Aug 2021

KAAT 030655Z AUTO 00000KT 10SM BKN055 18/01 A3023 RMK AO2 SLP186 T01780011
KAAT 030555Z AUTO 00000KT 10SM BKN060 BKN070 OVC110 21/01 A3024 RMK AO2 SLP188 T02110006 10344 20211 51012
KAAT 030455Z AUTO 32007KT 10SM FEW120 24/01 A3024 RMK AO2 SLP188 T02390006
KAAT 030355Z AUTO 33003KT 10SM CLR 26/01 A3023 RMK AO2 SLP187 T02560011
KAAT 030255Z AUTO 28006KT 10SM CLR 27/02 A3020 RMK AO2 SLP183 T02720022 52014
KAAT 030155Z AUTO 27013KT 9SM CLR 29/02 A3018 RMK AO2 SLP179 T02940017
KAAT 030055Z AUTO 26017KT 7SM CLR 32/01 A3018 RMK AO2 SLP176 T03220011
KAAT 022355Z AUTO 25010KT 10SM CLR 33/00 A3016 RMK AO2 SLP167 T03330000 10356 20283 56013
KAAT 022255Z AUTO 16011KT 10SM CLR 35/03 A3016 RMK AO2 SLP165 T03500028
KAAT 022155Z AUTO 17008KT 10SM FEW120 33/03 A3018 RMK AO2 SLP171 T03330028
KAAT 022055Z AUTO 17012G16KT 10SM CLR 34/04 A3020 RMK AO2 SLP177 T03390039 56018
KAAT 021955Z AUTO 17013G20KT 10SM CLR 33/06 A3021 RMK AO2 SLP179 T03330056
KAAT 021855Z AUTO 19007KT 10SM FEW110 32/06 A3024 RMK AO2 SLP185 T03170061
KAAT 021755Z AUTO 00000KT 10SM CLR 28/04 A3026 RMK AO2 SLP196 T02830044 10283 20083 58008
KAAT 021655Z AUTO 12003KT 10SM FEW110 25/04 A3027 RMK AO2 SLP201 T02500044
KAAT 021555Z AUTO 00000KT 10SM CLR 21/06 A3028 RMK AO2 SLP209 T02060056
KAAT 021455Z AUTO 00000KT 10SM CLR 16/06 A3029 RMK AO2 SLP211 T01610056 53006
KAAT 021355Z AUTO 00000KT 10SM CLR 11/04 A3028 RMK AO2 SLP210 T01110039 $
KAAT 021255Z AUTO 00000KT 10SM FEW120 08/03 A3027 RMK AO2 SLP211 T00830028 $
KAAT 021155Z AUTO 00000KT 10SM CLR 09/03 A3027 RMK AO2 SLP210 T00940033 10200 20089 53005 $
KAAT 021055Z AUTO 11003KT 10SM CLR 11/04 A3025 RMK AO2 SLP202 T01110044 $
KAAT 020955Z AUTO 10003KT 10SM CLR 13/05 A3025 RMK AO2 SLP196 T01330050 $
KAAT 020855Z AUTO 00000KT 10SM CLR 13/06 A3025 RMK AO2 SLP197 T01330056 50006 $
KAAT 020755Z AUTO 22003KT 10SM CLR 16/06 A3025 RMK AO2 SLP196 T01560056 403330106 $
KAAT 020655Z AUTO 00000KT 10SM CLR 19/06 A3025 RMK AO2 SLP191 T01890056 $
KAAT 020555Z AUTO 14006KT 10SM CLR 20/06 A3023 RMK AO2 SLP188 T02000056 10317 20200 51022 $
KAAT 020455Z AUTO 28005KT 10SM CLR 22/06 A3022 RMK AO2 SLP184 T02220056 $
KAAT 020355Z AUTO 27007KT 10SM CLR 24/06 A3019 RMK AO2 SLP174 T02440056 $
KAAT 020255Z AUTO 00000KT 10SM CLR 28/05 A3016 RMK AO2 SLP165 T02780050 55002 $
KAAT 020155Z AUTO 26005KT 10SM CLR 31/03 A3015 RMK AO2 SLP165 T03060033 $
KAAT 020055Z AUTO 25006KT 10SM FEW120 31/04 A3016 RMK AO2 SLP167 T03110039 $
KAAT 012355Z AUTO 28012KT 10SM SCT120 31/04 A3017 RMK AO2 LTG DSNT SE SLP171 T03060039 10333 20278 56009 $
KAAT 012255Z AUTO 24017KT 10SM CLR 31/04 A3017 RMK AO2 SLP173 T03110039 $
KAAT 012155Z AUTO 22004KT 10SM CLR 33/04 A3017 RMK AO2 LTG DSNT SW SLP168 T03280039 $
KAAT 012055Z AUTO VRB03KT 10SM FEW110 32/05 A3020 RMK AO2 SLP176 T03170050 57011 $
KAAT 011955Z AUTO 30009KT 290V350 10SM CLR 32/06 A3021 RMK AO2 SLP179 T03170056 $